Time;durP1;ratioP1;P1;durP2;ratioP2;P2;SDS_P1;SDS_P2;PMS_P1;PMS_P2;Temp;Humidity;BMP_temperature;BMP_pressure;BME280_temperature;BME280_humidity;BME280_pressure;Samples;Min_cycle;Max_cycle;Signal;HPM_P1;HPM_P2
2023/07/04 00:01:04;;;;;;;7.30;4.05;;;;;;;;;;5016048;28;20405;-77
2023/07/04 00:03:30;;;;;;;8.70;4.43;;;;;;;;;;5014622;28;20034;-78
2023/07/04 00:05:56;;;;;;;10.85;5.05;;;;;;;;;;5011489;28;20432;-78
2023/07/04 00:08:26;;;;;;;8.75;4.03;;;;;;;;;;5014413;28;20104;-78
2023/07/04 00:10:56;;;;;;;6.97;4.30;;;;;;;;;;5014700;28;20038;-78
2023/07/04 00:13:22;;;;;;;10.27;4.45;;;;;;;;;;5014189;28;20037;-81
2023/07/04 00:15:50;;;;;;;9.15;4.22;;;;;;;;;;5015728;28;20045;-78
2023/07/04 00:18:20;;;;;;;13.90;5.03;;;;;;;;;;5013619;28;20113;-78
2023/07/04 00:20:47;;;;;;;9.48;4.22;;;;;;;;;;5016162;28;20443;-78
2023/07/04 00:23:12;;;;;;;7.22;4.32;;;;;;;;;;5014527;28;20092;-78
2023/07/04 00:25:37;;;;;;;13.27;5.07;;;;;;;;;;5015005;28;20042;-77
2023/07/04 00:28:05;;;;;;;9.55;4.75;;;;;;;;;;5014808;28;20405;-78
2023/07/04 00:30:31;;;;;;;8.48;4.60;;;;;;;;;;5009332;28;20096;-78
2023/07/04 00:32:56;;;;;;;6.25;4.05;;;;;;;;;;5015065;28;20098;-78
2023/07/04 00:35:23;;;;;;;10.38;4.53;;;;;;;;;;5011580;28;20125;-78
2023/07/04 00:37:48;;;;;;;8.80;4.28;;;;;;;;;;5012028;28;20067;-78
2023/07/04 00:40:13;;;;;;;12.38;5.00;;;;;;;;;;5014044;28;20034;-79
2023/07/04 00:42:41;;;;;;;5.88;3.72;;;;;;;;;;5012237;28;20503;-80
2023/07/04 00:45:20;;;;;;;7.63;3.80;;;;;;;;;;5012770;28;20053;-78
2023/07/04 00:47:53;;;;;;;8.50;4.47;;;;;;;;;;5000212;28;20038;-79
2023/07/04 00:50:23;;;;;;;6.07;3.78;;;;;;;;;;5012915;28;20038;-77
2023/07/04 00:52:49;;;;;;;9.27;4.50;;;;;;;;;;5011139;28;20038;-80
2023/07/04 00:55:15;;;;;;;7.47;3.60;;;;;;;;;;5013675;28;20042;-80
2023/07/04 00:57:40;;;;;;;7.57;4.28;;;;;;;;;;5012461;28;20449;-79
2023/07/04 01:00:43;;;;;;;7.30;3.33;;;;;;;;;;5014779;28;20061;-77
2023/07/04 01:03:05;;;;;;;9.80;3.67;;;;;;;;;;5002602;28;20527;-77
2023/07/04 01:05:40;;;;;;;6.97;3.55;;;;;;;;;;5013232;28;20492;-77
2023/07/04 01:08:12;;;;;;;12.25;3.35;;;;;;;;;;5015289;28;20050;-80
2023/07/04 01:10:44;;;;;;;9.13;3.67;;;;;;;;;;5013077;28;20540;-77
2023/07/04 01:13:35;;;;;;;6.65;3.35;;;;;;;;;;5012781;28;20113;-78
2023/07/04 01:16:09;;;;;;;6.30;3.15;;;;;;;;;;5014857;28;20162;-78
2023/07/04 01:18:37;;;;;;;9.18;3.53;;;;;;;;;;5013647;28;20042;-78
2023/07/04 01:21:05;;;;;;;7.00;3.45;;;;;;;;;;5014771;28;20116;-79
2023/07/04 01:23:48;;;;;;;7.57;3.42;;;;;;;;;;5013765;28;20040;-78
2023/07/04 01:26:34;;;;;;;4.35;3.30;;;;;;;;;;5015235;28;20100;-79
2023/07/04 01:29:02;;;;;;;6.75;3.30;;;;;;;;;;5014845;28;20049;-78
2023/07/04 01:31:30;;;;;;;4.97;2.92;;;;;;;;;;5015858;28;20045;-78
2023/07/04 01:33:56;;;;;;;7.28;3.40;;;;;;;;;;5014462;28;20121;-78
2023/07/04 01:36:24;;;;;;;4.25;2.80;;;;;;;;;;5015731;28;20057;-78
2023/07/04 01:38:50;;;;;;;5.82;3.13;;;;;;;;;;5017883;28;20025;-79
2023/07/04 01:41:15;;;;;;;8.80;3.38;;;;;;;;;;5011011;28;20037;-78
2023/07/04 01:43:44;;;;;;;4.65;2.83;;;;;;;;;;5018832;28;20038;-78
2023/07/04 01:46:10;;;;;;;5.53;3.25;;;;;;;;;;5019122;28;20211;-78
2023/07/04 01:48:38;;;;;;;4.15;2.85;;;;;;;;;;5017381;28;20050;-79
2023/07/04 01:51:03;;;;;;;9.40;3.58;;;;;;;;;;5017018;28;20036;-79
2023/07/04 01:53:28;;;;;;;5.85;3.33;;;;;;;;;;5016835;28;20030;-79
2023/07/04 01:55:54;;;;;;;5.93;3.10;;;;;;;;;;5017760;28;20512;-78
2023/07/04 01:58:20;;;;;;;5.28;3.42;;;;;;;;;;5017280;28;20038;-78
2023/07/04 02:00:45;;;;;;;8.02;3.30;;;;;;;;;;5018092;28;20077;-78
2023/07/04 02:03:10;;;;;;;9.15;3.65;;;;;;;;;;5018279;28;20034;-78
2023/07/04 02:05:39;;;;;;;8.73;3.28;;;;;;;;;;5020775;28;20028;-80
2023/07/04 02:08:04;;;;;;;7.90;3.35;;;;;;;;;;5023358;28;20045;-80
2023/07/04 02:10:29;;;;;;;7.25;3.30;;;;;;;;;;5021915;28;20030;-80
2023/07/04 02:12:55;;;;;;;8.50;3.65;;;;;;;;;;5019440;28;20562;-80
2023/07/04 02:15:22;;;;;;;6.55;4.03;;;;;;;;;;5018969;28;20045;-82
2023/07/04 02:17:47;;;;;;;10.27;3.70;;;;;;;;;;5019619;28;20034;-79
2023/07/04 02:20:12;;;;;;;5.40;3.65;;;;;;;;;;5018896;28;20088;-80
2023/07/04 02:22:41;;;;;;;9.20;4.07;;;;;;;;;;5020382;28;20038;-80
2023/07/04 02:25:06;;;;;;;11.88;4.25;;;;;;;;;;5019703;28;20042;-80
2023/07/04 02:27:32;;;;;;;7.63;3.75;;;;;;;;;;5020908;28;20038;-80
2023/07/04 02:29:57;;;;;;;7.03;3.17;;;;;;;;;;5019494;28;20037;-78
2023/07/04 02:32:22;;;;;;;6.47;3.25;;;;;;;;;;5017847;28;20489;-80
2023/07/04 02:34:48;;;;;;;7.68;3.60;;;;;;;;;;5018729;28;20036;-79
2023/07/04 02:37:13;;;;;;;6.25;3.30;;;;;;;;;;5065373;22;20453;-75
2023/07/04 02:39:39;;;;;;;6.03;3.20;;;;;;;;;;5059158;28;20444;-77
2023/07/04 02:42:05;;;;;;;11.02;3.42;;;;;;;;;;5065554;28;20082;-76
2023/07/04 02:44:31;;;;;;;9.68;3.45;;;;;;;;;;5057521;28;20025;-76
2023/07/04 02:46:56;;;;;;;7.75;3.28;;;;;;;;;;5066037;28;20029;-76
2023/07/04 02:49:21;;;;;;;4.40;2.78;;;;;;;;;;5060438;28;20564;-76
2023/07/04 02:51:47;;;;;;;9.45;3.00;;;;;;;;;;5051583;28;20047;-76
2023/07/04 02:54:12;;;;;;;5.97;3.58;;;;;;;;;;5050877;28;20025;-76
2023/07/04 02:56:37;;;;;;;4.18;3.20;;;;;;;;;;5051781;28;20108;-75
2023/07/04 02:59:02;;;;;;;9.18;3.30;;;;;;;;;;5051048;28;20068;-75
2023/07/04 03:01:28;;;;;;;5.55;3.10;;;;;;;;;;5051469;28;20037;-75
2023/07/04 03:03:53;;;;;;;8.23;2.90;;;;;;;;;;5051020;28;20057;-76
2023/07/04 03:06:19;;;;;;;9.55;3.20;;;;;;;;;;5051016;28;20032;-75
2023/07/04 03:08:45;;;;;;;4.18;3.05;;;;;;;;;;5051590;28;20463;-76
2023/07/04 03:11:11;;;;;;;5.80;2.88;;;;;;;;;;5047570;28;20041;-76
2023/07/04 03:13:36;;;;;;;6.63;3.42;;;;;;;;;;5045835;28;20104;-76
2023/07/04 03:16:02;;;;;;;4.93;3.28;;;;;;;;;;5044871;28;20503;-76
2023/07/04 03:18:27;;;;;;;5.15;3.08;;;;;;;;;;5043027;28;20048;-76
2023/07/04 03:20:53;;;;;;;4.72;2.88;;;;;;;;;;5051280;28;20020;-76
2023/07/04 03:23:18;;;;;;;7.30;3.28;;;;;;;;;;5044664;28;20047;-76
2023/07/04 03:25:43;;;;;;;6.03;2.97;;;;;;;;;;5050372;28;20058;-76
2023/07/04 03:28:09;;;;;;;10.45;3.65;;;;;;;;;;5043220;28;20036;-76
2023/07/04 03:30:34;;;;;;;4.72;2.83;;;;;;;;;;5038821;28;20487;-75
2023/07/04 03:32:59;;;;;;;5.93;2.95;;;;;;;;;;5044262;28;20025;-76
2023/07/04 03:35:25;;;;;;;6.25;3.42;;;;;;;;;;5049558;28;20041;-76
2023/07/04 03:37:50;;;;;;;3.58;3.13;;;;;;;;;;5043628;28;20376;-76
2023/07/04 03:40:15;;;;;;;6.03;3.55;;;;;;;;;;5030951;28;20045;-76
2023/07/04 03:42:41;;;;;;;8.75;3.63;;;;;;;;;;5030616;28;20530;-76
2023/07/04 03:45:07;;;;;;;7.78;3.70;;;;;;;;;;5031044;28;20053;-76
2023/07/04 03:47:33;;;;;;;7.28;3.47;;;;;;;;;;5029887;28;20472;-75
2023/07/04 03:49:58;;;;;;;13.75;3.38;;;;;;;;;;5043031;28;20083;-75
2023/07/04 03:52:24;;;;;;;6.40;3.58;;;;;;;;;;5043405;28;20071;-75
2023/07/04 03:54:49;;;;;;;5.25;3.38;;;;;;;;;;5051045;28;20090;-76
2023/07/04 03:57:15;;;;;;;8.02;3.65;;;;;;;;;;5034398;28;20129;-77
2023/07/04 03:59:40;;;;;;;9.93;4.03;;;;;;;;;;5045067;28;20175;-76
2023/07/04 04:02:05;;;;;;;7.18;3.92;;;;;;;;;;5034776;28;20033;-76
2023/07/04 04:04:36;;;;;;;7.03;3.67;;;;;;;;;;5032112;28;20549;-76
2023/07/04 04:07:01;;;;;;;6.85;3.92;;;;;;;;;;5046369;28;20071;-76
2023/07/04 04:09:27;;;;;;;8.30;4.72;;;;;;;;;;5043063;28;20060;-76
2023/07/04 04:11:52;;;;;;;8.15;4.28;;;;;;;;;;5043845;28;20489;-76
2023/07/04 04:14:17;;;;;;;10.68;4.53;;;;;;;;;;5038496;28;20041;-76
2023/07/04 04:16:42;;;;;;;11.82;4.35;;;;;;;;;;5049727;28;20044;-76
2023/07/04 04:19:08;;;;;;;13.82;5.47;;;;;;;;;;5038527;28;20056;-76
2023/07/04 04:21:33;;;;;;;10.65;5.30;;;;;;;;;;5036183;28;20048;-75
2023/07/04 04:23:58;;;;;;;8.05;4.75;;;;;;;;;;5035480;28;20083;-76
2023/07/04 04:26:24;;;;;;;11.50;4.63;;;;;;;;;;5042288;28;20037;-76
2023/07/04 04:28:50;;;;;;;7.25;4.80;;;;;;;;;;5038665;28;20450;-76
2023/07/04 04:31:16;;;;;;;9.05;4.57;;;;;;;;;;5038625;28;20029;-77
2023/07/04 04:33:41;;;;;;;9.55;5.00;;;;;;;;;;5044535;28;20048;-77
2023/07/04 04:36:07;;;;;;;10.70;4.55;;;;;;;;;;5038330;28;20025;-76
2023/07/04 04:38:32;;;;;;;6.55;4.13;;;;;;;;;;5043559;28;20112;-77
2023/07/04 04:41:03;;;;;;;12.05;4.60;;;;;;;;;;5049985;28;20049;-77
2023/07/04 04:43:29;;;;;;;8.80;4.25;;;;;;;;;;5038735;28;20037;-76
2023/07/04 04:45:55;;;;;;;7.85;4.78;;;;;;;;;;5034470;28;20038;-77
2023/07/04 04:48:29;;;;;;;11.95;4.53;;;;;;;;;;5043549;28;20025;-77
2023/07/04 04:50:57;;;;;;;7.23;4.43;;;;;;;;;;5037297;28;20094;-76
2023/07/04 04:53:24;;;;;;;8.43;4.15;;;;;;;;;;5033948;28;20315;-75
2023/07/04 04:55:50;;;;;;;6.50;3.85;;;;;;;;;;5038534;28;20040;-77
2023/07/04 04:58:16;;;;;;;7.85;4.00;;;;;;;;;;5045090;28;20056;-77
2023/07/04 05:00:41;;;;;;;10.50;3.83;;;;;;;;;;5039621;28;20499;-76
2023/07/04 05:03:06;;;;;;;9.60;4.03;;;;;;;;;;5032886;28;20640;-76
2023/07/04 05:05:32;;;;;;;11.15;4.57;;;;;;;;;;5033290;28;20021;-76
2023/07/04 05:07:57;;;;;;;7.82;4.28;;;;;;;;;;5038110;28;20052;-76
2023/07/04 05:10:22;;;;;;;8.98;4.53;;;;;;;;;;5038185;28;20037;-76
2023/07/04 05:12:47;;;;;;;6.88;4.18;;;;;;;;;;5035624;28;20033;-76
2023/07/04 05:15:13;;;;;;;4.93;3.55;;;;;;;;;;5052653;28;20041;-77
2023/07/04 05:17:39;;;;;;;6.13;3.90;;;;;;;;;;5042990;28;20468;-77
2023/07/04 05:20:05;;;;;;;5.38;3.72;;;;;;;;;;5035349;28;20116;-77
2023/07/04 05:22:30;;;;;;;6.35;3.80;;;;;;;;;;5046558;28;20048;-77
2023/07/04 05:24:57;;;;;;;8.25;3.88;;;;;;;;;;5042551;28;20029;-76
2023/07/04 05:27:22;;;;;;;8.07;3.78;;;;;;;;;;5045953;28;20039;-76
2023/07/04 05:29:48;;;;;;;8.88;3.92;;;;;;;;;;5039839;28;20112;-76
2023/07/04 05:32:13;;;;;;;7.07;3.42;;;;;;;;;;5041621;28;20445;-76
2023/07/04 05:34:38;;;;;;;6.10;3.10;;;;;;;;;;5045184;28;20041;-76
2023/07/04 05:37:04;;;;;;;8.57;3.35;;;;;;;;;;5048618;28;20033;-76
2023/07/04 05:39:29;;;;;;;5.13;3.38;;;;;;;;;;5049561;28;20496;-76
2023/07/04 05:41:54;;;;;;;4.70;3.50;;;;;;;;;;5044657;28;20368;-76
2023/07/04 05:44:21;;;;;;;7.78;3.53;;;;;;;;;;5049904;28;20451;-76
2023/07/04 05:46:46;;;;;;;5.70;3.47;;;;;;;;;;5044104;28;20033;-76
2023/07/04 05:49:11;;;;;;;8.90;3.78;;;;;;;;;;5038845;28;20442;-76
2023/07/04 05:51:37;;;;;;;6.75;3.80;;;;;;;;;;5049793;28;20064;-77
2023/07/04 05:54:02;;;;;;;11.27;3.95;;;;;;;;;;5044615;28;20036;-77
2023/07/04 05:56:30;;;;;;;6.18;4.35;;;;;;;;;;5039727;28;20325;-76
2023/07/04 05:59:00;;;;;;;7.10;4.03;;;;;;;;;;5050941;28;20108;-76
2023/07/04 06:01:38;;;;;;;7.55;4.32;;;;;;;;;;5050564;28;20037;-75
2023/07/04 06:04:06;;;;;;;6.85;3.88;;;;;;;;;;5039206;28;20112;-75
2023/07/04 06:06:42;;;;;;;7.55;3.85;;;;;;;;;;5046576;28;20037;-75
2023/07/04 06:09:11;;;;;;;7.80;3.97;;;;;;;;;;5042312;28;20112;-75
2023/07/04 06:11:39;;;;;;;5.75;3.47;;;;;;;;;;5040348;28;20052;-74
2023/07/04 06:14:06;;;;;;;5.05;3.70;;;;;;;;;;5047707;28;20057;-75
2023/07/04 06:16:32;;;;;;;7.13;3.90;;;;;;;;;;5043982;28;20033;-75
2023/07/04 06:18:57;;;;;;;6.28;3.55;;;;;;;;;;5044384;28;20076;-75
2023/07/04 06:21:24;;;;;;;5.40;3.92;;;;;;;;;;5042538;28;20444;-74
2023/07/04 06:23:54;;;;;;;4.05;3.30;;;;;;;;;;5043367;28;20021;-74
2023/07/04 06:26:19;;;;;;;7.22;4.10;;;;;;;;;;5047054;28;20083;-75
2023/07/04 06:28:45;;;;;;;6.70;3.55;;;;;;;;;;5051949;28;20061;-74
2023/07/04 06:31:13;;;;;;;6.25;3.50;;;;;;;;;;5039747;28;20029;-75
2023/07/04 06:33:39;;;;;;;4.80;3.47;;;;;;;;;;5039610;28;20060;-75
2023/07/04 06:36:11;;;;;;;5.88;3.22;;;;;;;;;;5052089;28;20471;-75
2023/07/04 06:38:36;;;;;;;5.40;2.67;;;;;;;;;;5048928;28;20121;-75
2023/07/04 06:41:03;;;;;;;3.22;2.58;;;;;;;;;;5045248;28;20563;-75
2023/07/04 06:43:30;;;;;;;3.47;2.35;;;;;;;;;;5042535;28;20060;-74
2023/07/04 06:45:56;;;;;;;3.45;2.38;;;;;;;;;;5040654;28;20034;-74
2023/07/04 06:48:22;;;;;;;7.57;2.42;;;;;;;;;;5041832;28;20025;-74
2023/07/04 06:50:57;;;;;;;2.08;1.98;;;;;;;;;;5039458;28;20028;-73
2023/07/04 06:53:23;;;;;;;4.57;2.42;;;;;;;;;;5036999;28;20048;-74
2023/07/04 06:55:48;;;;;;;2.17;1.92;;;;;;;;;;5044865;28;20415;-74
2023/07/04 06:58:15;;;;;;;3.72;2.40;;;;;;;;;;5039568;28;20436;-74
2023/07/04 07:00:41;;;;;;;3.72;2.22;;;;;;;;;;5044717;28;20564;-74
2023/07/04 07:03:06;;;;;;;1.75;1.65;;;;;;;;;;5047831;28;20029;-75
2023/07/04 07:05:31;;;;;;;2.15;1.95;;;;;;;;;;5046289;28;20108;-75
2023/07/04 07:07:56;;;;;;;2.45;1.85;;;;;;;;;;5049261;28;20044;-75
2023/07/04 07:10:22;;;;;;;1.90;1.70;;;;;;;;;;5036538;28;20131;-76
2023/07/04 07:12:47;;;;;;;2.00;1.83;;;;;;;;;;5035623;28;20029;-76
2023/07/04 07:15:12;;;;;;;2.55;1.58;;;;;;;;;;5038134;28;20025;-76
2023/07/04 07:17:38;;;;;;;3.28;1.70;;;;;;;;;;5039643;28;20123;-75
2023/07/04 07:20:04;;;;;;;3.42;1.85;;;;;;;;;;5048654;28;20040;-76
2023/07/04 07:22:29;;;;;;;1.80;1.70;;;;;;;;;;5048492;28;20530;-76
2023/07/04 07:24:55;;;;;;;2.42;1.83;;;;;;;;;;5049634;28;20037;-76
2023/07/04 07:27:20;;;;;;;1.92;1.77;;;;;;;;;;5046384;28;20475;-76
2023/07/04 07:29:48;;;;;;;1.85;1.67;;;;;;;;;;5045093;28;20056;-76
2023/07/04 07:32:13;;;;;;;3.13;1.83;;;;;;;;;;5047483;28;20033;-75
2023/07/04 07:34:38;;;;;;;1.70;1.60;;;;;;;;;;5045286;28;20619;-76
2023/07/04 07:37:04;;;;;;;2.03;1.67;;;;;;;;;;5050649;28;20040;-76
2023/07/04 07:39:30;;;;;;;1.90;1.80;;;;;;;;;;5050671;28;20040;-76
2023/07/04 07:41:55;;;;;;;2.25;1.45;;;;;;;;;;5043302;28;20036;-76
2023/07/04 07:44:20;;;;;;;3.05;1.70;;;;;;;;;;5049000;28;20033;-76
2023/07/04 07:46:46;;;;;;;2.08;1.50;;;;;;;;;;5046923;28;20037;-76
2023/07/04 07:49:11;;;;;;;3.67;1.60;;;;;;;;;;5044510;28;20033;-76
2023/07/04 07:51:37;;;;;;;1.60;1.45;;;;;;;;;;5046975;28;20037;-76
2023/07/04 07:54:06;;;;;;;1.70;1.60;;;;;;;;;;5041826;28;20040;-76
2023/07/04 07:56:44;;;;;;;1.58;1.48;;;;;;;;;;5047114;28;20036;-75
2023/07/04 07:59:10;;;;;;;1.55;1.45;;;;;;;;;;5046088;28;20410;-74
2023/07/04 08:01:36;;;;;;;3.20;1.40;;;;;;;;;;5045479;28;20403;-74
2023/07/04 08:04:03;;;;;;;1.50;1.40;;;;;;;;;;5049631;28;20029;-74
2023/07/04 08:06:36;;;;;;;3.30;1.60;;;;;;;;;;5048231;28;20036;-74
2023/07/04 08:09:03;;;;;;;2.70;1.70;;;;;;;;;;5045937;28;20040;-74
2023/07/04 08:11:29;;;;;;;2.17;1.60;;;;;;;;;;5048447;28;20130;-73
2023/07/04 08:13:56;;;;;;;2.13;1.60;;;;;;;;;;5048850;28;20086;-74
2023/07/04 08:16:26;;;;;;;1.60;1.38;;;;;;;;;;5042177;28;20502;-74
2023/07/04 08:18:52;;;;;;;2.15;1.70;;;;;;;;;;5040431;28;20041;-74
2023/07/04 08:21:18;;;;;;;2.58;1.70;;;;;;;;;;5044045;28;20040;-74
2023/07/04 08:23:44;;;;;;;2.47;1.65;;;;;;;;;;5044246;28;20534;-74
2023/07/04 08:26:21;;;;;;;1.67;1.58;;;;;;;;;;5050039;28;20037;-74
2023/07/04 08:28:47;;;;;;;1.70;1.60;;;;;;;;;;5042689;28;20045;-74
2023/07/04 08:31:12;;;;;;;2.17;1.63;;;;;;;;;;5040027;28;20120;-74
2023/07/04 08:33:38;;;;;;;1.63;1.40;;;;;;;;;;5043816;28;20041;-75
2023/07/04 08:36:06;;;;;;;1.50;1.40;;;;;;;;;;5036161;28;20390;-75
2023/07/04 08:38:32;;;;;;;3.20;1.60;;;;;;;;;;5035430;28;20462;-74
2023/07/04 08:40:57;;;;;;;1.77;1.42;;;;;;;;;;5041891;28;20072;-74
2023/07/04 08:43:30;;;;;;;4.13;1.67;;;;;;;;;;5047348;28;20036;-74
2023/07/04 08:45:56;;;;;;;4.15;1.92;;;;;;;;;;5050195;28;20064;-73
2023/07/04 08:48:25;;;;;;;3.92;1.88;;;;;;;;;;5039929;28;20036;-74
2023/07/04 08:50:52;;;;;;;4.78;1.92;;;;;;;;;;5049932;28;20029;-74
2023/07/04 08:53:21;;;;;;;3.00;2.10;;;;;;;;;;5041110;28;20029;-74
2023/07/04 08:55:55;;;;;;;4.07;2.28;;;;;;;;;;5046297;28;20034;-73
2023/07/04 08:58:25;;;;;;;5.85;2.33;;;;;;;;;;5034411;28;20381;-74
2023/07/04 09:00:50;;;;;;;4.93;2.53;;;;;;;;;;5030519;28;20034;-74
2023/07/04 09:03:20;;;;;;;4.28;2.55;;;;;;;;;;5038308;28;20036;-74
2023/07/04 09:06:02;;;;;;;6.88;2.78;;;;;;;;;;5039000;28;20081;-74
2023/07/04 09:09:06;;;;;;;7.03;2.58;;;;;;;;;;5039967;28;20076;-74
2023/07/04 09:11:32;;;;;;;4.63;2.55;;;;;;;;;;5032135;28;20061;-73
2023/07/04 09:14:23;;;;;;;2.00;1.80;;;;;;;;;;5035662;28;20053;-74
2023/07/04 09:16:51;;;;;;;7.85;2.90;;;;;;;;;;5029905;28;20026;-74
2023/07/04 09:19:19;;;;;;;5.80;2.40;;;;;;;;;;5034551;28;20041;-74
2023/07/04 09:21:45;;;;;;;4.32;2.40;;;;;;;;;;5045308;28;20445;-74
2023/07/04 09:24:11;;;;;;;5.20;2.40;;;;;;;;;;5041999;28;20028;-74
2023/07/04 09:26:44;;;;;;;4.30;2.45;;;;;;;;;;5048464;28;20537;-74
2023/07/04 09:29:10;;;;;;;2.55;1.83;;;;;;;;;;5039019;28;20476;-74
2023/07/04 09:31:39;;;;;;;4.32;2.10;;;;;;;;;;5047299;28;20045;-73
2023/07/04 09:34:14;;;;;;;5.22;2.22;;;;;;;;;;5047961;28;20040;-74
2023/07/04 09:36:40;;;;;;;6.07;3.17;;;;;;;;;;5048510;28;20126;-73
2023/07/04 09:39:08;;;;;;;2.85;2.00;;;;;;;;;;5049797;28;20064;-74
2023/07/04 09:41:36;;;;;;;5.57;2.22;;;;;;;;;;5047113;28;20028;-74
2023/07/04 09:44:19;;;;;;;5.97;2.15;;;;;;;;;;5043664;28;20056;-73
2023/07/04 09:46:50;;;;;;;6.18;1.80;;;;;;;;;;5048247;28;20082;-73
2023/07/04 09:49:30;;;;;;;1.60;1.50;;;;;;;;;;5047551;28;20037;-73
2023/07/04 09:52:16;;;;;;;1.88;1.60;;;;;;;;;;5047103;28;20094;-74
2023/07/04 09:54:42;;;;;;;1.63;1.52;;;;;;;;;;5046698;28;20407;-74
2023/07/04 09:57:28;;;;;;;2.13;1.60;;;;;;;;;;5049325;28;20108;-74
2023/07/04 09:59:54;;;;;;;1.95;1.50;;;;;;;;;;5053085;28;20035;-73
2023/07/04 10:02:32;;;;;;;3.33;1.38;;;;;;;;;;5045938;28;20120;-73
2023/07/04 10:04:58;;;;;;;1.30;1.20;;;;;;;;;;5047460;28;20095;-73
2023/07/04 10:07:24;;;;;;;1.77;1.33;;;;;;;;;;5048010;28;20441;-74
2023/07/04 10:09:54;;;;;;;1.50;1.40;;;;;;;;;;5048220;28;20044;-74
2023/07/04 10:12:21;;;;;;;3.00;1.23;;;;;;;;;;5047260;28;20624;-74
2023/07/04 10:14:57;;;;;;;1.92;1.70;;;;;;;;;;5045394;28;20037;-74
2023/07/04 10:17:32;;;;;;;1.58;1.48;;;;;;;;;;5041253;28;20060;-74
2023/07/04 10:20:05;;;;;;;2.65;1.40;;;;;;;;;;5052224;28;20041;-74
2023/07/04 10:22:40;;;;;;;4.47;1.50;;;;;;;;;;5040240;28;20044;-74
2023/07/04 10:25:11;;;;;;;1.60;1.50;;;;;;;;;;5041770;28;20079;-74
2023/07/04 10:27:39;;;;;;;1.85;1.42;;;;;;;;;;5050640;28;20047;-74
2023/07/04 10:30:08;;;;;;;1.27;1.20;;;;;;;;;;5047024;28;20708;-74
2023/07/04 10:32:39;;;;;;;2.10;1.27;;;;;;;;;;5053014;28;20024;-74
2023/07/04 10:35:09;;;;;;;3.47;1.38;;;;;;;;;;5052483;28;20499;-74
2023/07/04 10:37:37;;;;;;;1.90;1.70;;;;;;;;;;5047660;28;20044;-73
2023/07/04 10:40:08;;;;;;;1.77;1.27;;;;;;;;;;5051329;28;20091;-74
2023/07/04 10:42:36;;;;;;;1.30;1.20;;;;;;;;;;5043810;28;20112;-74
2023/07/04 10:45:04;;;;;;;1.77;1.38;;;;;;;;;;5046806;28;20017;-73
2023/07/04 10:47:32;;;;;;;6.25;1.40;;;;;;;;;;5049443;28;20415;-73
2023/07/04 10:50:07;;;;;;;1.48;1.33;;;;;;;;;;5040516;28;20034;-73
2023/07/04 10:52:34;;;;;;;1.30;1.20;;;;;;;;;;5049271;28;20033;-74
2023/07/04 10:55:01;;;;;;;1.30;1.20;;;;;;;;;;5045540;28;20115;-74
2023/07/04 10:57:56;;;;;;;2.25;1.27;;;;;;;;;;5047778;28;20116;-74
2023/07/04 11:00:41;;;;;;;1.35;1.25;;;;;;;;;;5040380;28;20040;-74
2023/07/04 11:03:13;;;;;;;1.58;1.30;;;;;;;;;;5045384;28;20055;-74
2023/07/04 11:05:42;;;;;;;3.67;1.27;;;;;;;;;;5048658;28;20078;-73
2023/07/04 11:08:17;;;;;;;1.38;1.25;;;;;;;;;;5048502;28;20495;-74
2023/07/04 11:10:45;;;;;;;2.35;1.27;;;;;;;;;;5044971;28;20048;-74
2023/07/04 11:13:19;;;;;;;1.45;1.35;;;;;;;;;;5047086;28;20078;-74
2023/07/04 11:15:49;;;;;;;1.48;1.08;;;;;;;;;;5047866;28;20044;-73
2023/07/04 11:18:17;;;;;;;1.40;1.30;;;;;;;;;;5047536;28;20536;-74
2023/07/04 11:21:05;;;;;;;1.13;1.13;;;;;;;;;;5048108;28;20029;-73
2023/07/04 11:23:42;;;;;;;1.30;1.20;;;;;;;;;;5049226;28;20033;-74
2023/07/04 11:26:08;;;;;;;2.05;1.40;;;;;;;;;;5046370;28;20033;-73
2023/07/04 11:28:36;;;;;;;1.30;1.20;;;;;;;;;;5049420;28;20044;-73
2023/07/04 11:31:27;;;;;;;1.65;1.30;;;;;;;;;;5045958;28;20036;-73
2023/07/04 11:33:52;;;;;;;5.93;1.52;;;;;;;;;;5045074;28;20132;-73
2023/07/04 11:36:25;;;;;;;2.30;1.20;;;;;;;;;;5048921;28;20135;-73
2023/07/04 11:38:53;;;;;;;1.37;1.27;;;;;;;;;;5051217;28;20332;-74
2023/07/04 11:41:34;;;;;;;1.20;1.20;;;;;;;;;;5043691;28;20040;-73
2023/07/04 11:44:12;;;;;;;4.32;2.10;;;;;;;;;;5047906;28;20791;-73
2023/07/04 11:46:40;;;;;;;2.75;2.00;;;;;;;;;;5049965;28;20618;-74
2023/07/04 11:49:16;;;;;;;2.60;1.75;;;;;;;;;;5045205;28;20036;-73
2023/07/04 11:51:42;;;;;;;2.25;1.83;;;;;;;;;;5049381;28;20041;-73
2023/07/04 11:54:07;;;;;;;2.42;1.95;;;;;;;;;;5047643;28;20047;-73
2023/07/04 11:56:34;;;;;;;2.95;2.10;;;;;;;;;;5048098;28;20475;-73
2023/07/04 11:59:11;;;;;;;8.52;2.00;;;;;;;;;;5048100;28;20404;-73
2023/07/04 12:01:51;;;;;;;1.98;1.70;;;;;;;;;;5030761;28;20033;-73
2023/07/04 12:04:32;;;;;;;1.77;1.67;;;;;;;;;;5045480;28;20082;-73
2023/07/04 12:07:03;;;;;;;3.00;1.58;;;;;;;;;;5050296;28;20086;-74
2023/07/04 12:09:50;;;;;;;3.10;2.22;;;;;;;;;;5050519;28;20091;-74
2023/07/04 12:12:28;;;;;;;3.55;1.60;;;;;;;;;;5048257;28;20040;-73
2023/07/04 12:15:08;;;;;;;4.78;1.52;;;;;;;;;;5050456;28;20044;-73
2023/07/04 12:17:44;;;;;;;3.15;1.83;;;;;;;;;;5041016;28;20195;-73
2023/07/04 12:20:16;;;;;;;3.63;1.50;;;;;;;;;;5047465;28;20036;-73
2023/07/04 12:22:52;;;;;;;1.98;1.50;;;;;;;;;;5050246;28;20399;-74
2023/07/04 12:25:32;;;;;;;2.72;1.60;;;;;;;;;;5042492;28;20037;-74
2023/07/04 12:28:00;;;;;;;1.52;1.30;;;;;;;;;;5049877;28;20044;-74
2023/07/04 12:30:25;;;;;;;1.88;1.60;;;;;;;;;;5041938;28;20029;-74
2023/07/04 12:32:52;;;;;;;2.00;1.67;;;;;;;;;;5047877;28;20064;-74
2023/07/04 12:35:20;;;;;;;2.10;1.80;;;;;;;;;;5048955;28;20503;-73
2023/07/04 12:37:52;;;;;;;1.85;1.75;;;;;;;;;;5043900;28;20063;-74
2023/07/04 12:40:20;;;;;;;3.78;1.67;;;;;;;;;;5050948;28;20036;-73
2023/07/04 12:42:46;;;;;;;5.15;1.80;;;;;;;;;;5050413;28;20029;-74
2023/07/04 12:45:20;;;;;;;2.38;1.60;;;;;;;;;;5050800;28;20036;-74
2023/07/04 12:47:47;;;;;;;;;;;;;;;;;;5051441;28;20035;-74
2023/07/04 12:50:15;;;;;;;3.10;1.85;;;;;;;;;;5050129;28;20393;-73
2023/07/04 12:52:41;;;;;;;2.92;1.67;;;;;;;;;;5041863;28;20411;-73
2023/07/04 12:55:24;;;;;;;3.83;1.85;;;;;;;;;;5049714;28;20037;-73
2023/07/04 12:57:51;;;;;;;1.67;1.58;;;;;;;;;;5050061;28;20037;-74
2023/07/04 13:00:26;;;;;;;4.82;2.00;;;;;;;;;;5036507;28;20493;-74
2023/07/04 13:02:53;;;;;;;1.70;1.60;;;;;;;;;;5049517;28;20032;-74
2023/07/04 13:05:18;;;;;;;2.92;1.75;;;;;;;;;;5049118;28;20083;-74
2023/07/04 13:07:47;;;;;;;2.60;1.70;;;;;;;;;;5048787;28;20045;-74
2023/07/04 13:10:23;;;;;;;1.83;1.70;;;;;;;;;;5037867;28;20516;-74
2023/07/04 13:12:49;;;;;;;1.80;1.70;;;;;;;;;;5050045;28;20045;-73
2023/07/04 13:15:29;;;;;;;1.85;1.60;;;;;;;;;;5038683;28;20025;-74
2023/07/04 13:18:00;;;;;;;2.10;1.90;;;;;;;;;;5044181;28;20032;-74
2023/07/04 13:20:27;;;;;;;1.70;1.60;;;;;;;;;;5050427;28;20021;-73
2023/07/04 13:22:53;;;;;;;5.15;1.65;;;;;;;;;;5043769;28;20447;-74
2023/07/04 13:25:34;;;;;;;2.95;1.52;;;;;;;;;;5042108;28;20060;-73
2023/07/04 13:28:07;;;;;;;5.57;1.70;;;;;;;;;;5050172;28;20044;-73
2023/07/04 13:30:32;;;;;;;1.67;1.52;;;;;;;;;;5049730;28;20094;-73
2023/07/04 13:32:58;;;;;;;2.90;1.50;;;;;;;;;;5051492;28;20033;-73
2023/07/04 13:35:39;;;;;;;2.35;1.50;;;;;;;;;;5052648;28;20480;-73
2023/07/04 13:38:05;;;;;;;1.50;1.40;;;;;;;;;;5048642;28;20043;-73
2023/07/04 13:40:31;;;;;;;1.70;1.60;;;;;;;;;;5043822;28;20045;-73
2023/07/04 13:43:09;;;;;;;2.35;1.63;;;;;;;;;;5051222;28;20492;-73
2023/07/04 13:45:35;;;;;;;1.45;1.35;;;;;;;;;;5047223;28;20060;-73
2023/07/04 13:48:00;;;;;;;1.63;1.42;;;;;;;;;;5053010;28;20056;-73
2023/07/04 13:50:25;;;;;;;2.33;1.63;;;;;;;;;;5051197;28;20054;-73
2023/07/04 13:52:52;;;;;;;2.17;1.52;;;;;;;;;;5052759;28;20394;-73
2023/07/04 13:55:17;;;;;;;2.25;1.50;;;;;;;;;;5052603;28;20511;-74
2023/07/04 13:57:43;;;;;;;1.58;1.48;;;;;;;;;;5042590;28;20100;-73
2023/07/04 14:00:09;;;;;;;1.40;1.30;;;;;;;;;;5049932;28;20031;-73
2023/07/04 14:02:35;;;;;;;7.20;1.70;;;;;;;;;;5049590;28;20017;-73
2023/07/04 14:05:00;;;;;;;13.35;1.70;;;;;;;;;;5045045;28;20510;-73
2023/07/04 14:07:25;;;;;;;1.50;1.38;;;;;;;;;;5053068;28;20036;-73
2023/07/04 14:09:51;;;;;;;2.75;1.42;;;;;;;;;;5052769;28;20045;-73
2023/07/04 14:12:16;;;;;;;2.08;1.23;;;;;;;;;;5052331;28;20025;-73
2023/07/04 14:14:42;;;;;;;3.40;1.33;;;;;;;;;;5053432;28;20024;-73
2023/07/04 14:17:07;;;;;;;3.95;1.60;;;;;;;;;;5047851;28;20061;-73
2023/07/04 14:19:33;;;;;;;1.48;1.38;;;;;;;;;;5045784;28;20037;-73
2023/07/04 14:21:58;;;;;;;8.13;1.77;;;;;;;;;;5050518;28;20042;-73
2023/07/04 14:24:23;;;;;;;1.58;1.48;;;;;;;;;;5046166;28;20025;-73
2023/07/04 14:26:49;;;;;;;1.38;1.27;;;;;;;;;;5045292;28;20506;-73
2023/07/04 14:29:14;;;;;;;3.55;1.40;;;;;;;;;;5046785;28;20037;-73
2023/07/04 14:31:39;;;;;;;1.33;1.23;;;;;;;;;;5049469;28;20418;-73
2023/07/04 14:34:04;;;;;;;1.48;1.38;;;;;;;;;;5049722;28;20083;-73
2023/07/04 14:36:30;;;;;;;2.85;1.33;;;;;;;;;;5051615;28;20045;-73
2023/07/04 14:38:55;;;;;;;1.50;1.40;;;;;;;;;;5049142;28;20368;-75
2023/07/04 14:41:20;;;;;;;1.60;1.50;;;;;;;;;;5045239;28;20025;-75
2023/07/04 14:43:45;;;;;;;3.78;1.60;;;;;;;;;;5044907;28;20033;-75
2023/07/04 14:46:11;;;;;;;5.30;1.33;;;;;;;;;;5041719;28;20049;-75
2023/07/04 14:48:37;;;;;;;1.73;1.42;;;;;;;;;;5048389;28;20098;-75
2023/07/04 14:51:13;;;;;;;2.28;1.52;;;;;;;;;;5042494;28;20071;-75